sensor_id;sensor_type;location;lat;lon;timestamp;P1;durP1;ratioP1;P2;durP2;ratioP2
74626;SDS011;63132;52.268;5.192;2023-04-15T00:01:59;12.35;;;6.10;;
74626;SDS011;63132;52.268;5.192;2023-04-15T00:04:24;13.88;;;6.55;;
74626;SDS011;63132;52.268;5.192;2023-04-15T00:06:50;12.77;;;6.00;;
74626;SDS011;63132;52.268;5.192;2023-04-15T00:09:19;15.68;;;6.63;;
74626;SDS011;63132;52.268;5.192;2023-04-15T00:11:45;10.75;;;6.22;;
74626;SDS011;63132;52.268;5.192;2023-04-15T00:14:11;11.88;;;6.50;;
74626;SDS011;63132;52.268;5.192;2023-04-15T00:16:37;17.08;;;7.50;;
74626;SDS011;63132;52.268;5.192;2023-04-15T00:19:03;10.45;;;6.45;;
74626;SDS011;63132;52.268;5.192;2023-04-15T00:21:29;11.25;;;6.82;;
74626;SDS011;63132;52.268;5.192;2023-04-15T00:26:20;12.20;;;6.38;;
74626;SDS011;63132;52.268;5.192;2023-04-15T00:28:46;10.32;;;5.88;;
74626;SDS011;63132;52.268;5.192;2023-04-15T00:31:11;10.52;;;6.18;;
74626;SDS011;63132;52.268;5.192;2023-04-15T00:33:37;13.68;;;5.95;;
74626;SDS011;63132;52.268;5.192;2023-04-15T00:36:03;11.98;;;6.65;;
74626;SDS011;63132;52.268;5.192;2023-04-15T00:38:29;13.93;;;6.30;;
74626;SDS011;63132;52.268;5.192;2023-04-15T00:40:55;13.48;;;5.80;;
74626;SDS011;63132;52.268;5.192;2023-04-15T00:43:21;11.05;;;6.22;;
74626;SDS011;63132;52.268;5.192;2023-04-15T00:45:46;14.65;;;6.85;;
74626;SDS011;63132;52.268;5.192;2023-04-15T00:48:12;13.23;;;6.63;;
74626;SDS011;63132;52.268;5.192;2023-04-15T00:50:37;11.75;;;6.05;;
74626;SDS011;63132;52.268;5.192;2023-04-15T00:53:03;13.20;;;6.80;;
74626;SDS011;63132;52.268;5.192;2023-04-15T00:55:28;18.15;;;6.45;;
74626;SDS011;63132;52.268;5.192;2023-04-15T00:57:54;10.87;;;5.60;;
74626;SDS011;63132;52.268;5.192;2023-04-15T01:00:21;13.05;;;6.43;;
74626;SDS011;63132;52.268;5.192;2023-04-15T01:02:46;12.52;;;5.82;;
74626;SDS011;63132;52.268;5.192;2023-04-15T01:05:12;11.65;;;6.00;;
74626;SDS011;63132;52.268;5.192;2023-04-15T01:10:03;13.30;;;6.65;;
74626;SDS011;63132;52.268;5.192;2023-04-15T01:12:29;13.57;;;6.20;;
74626;SDS011;63132;52.268;5.192;2023-04-15T01:14:57;14.40;;;6.38;;
74626;SDS011;63132;52.268;5.192;2023-04-15T01:17:24;10.93;;;5.65;;
74626;SDS011;63132;52.268;5.192;2023-04-15T01:19:49;10.45;;;6.35;;
74626;SDS011;63132;52.268;5.192;2023-04-15T01:22:16;13.50;;;7.07;;
74626;SDS011;63132;52.268;5.192;2023-04-15T01:24:42;15.88;;;7.03;;
74626;SDS011;63132;52.268;5.192;2023-04-15T01:27:19;11.55;;;5.90;;
74626;SDS011;63132;52.268;5.192;2023-04-15T01:29:45;11.95;;;6.32;;
74626;SDS011;63132;52.268;5.192;2023-04-15T01:32:11;13.30;;;7.20;;
74626;SDS011;63132;52.268;5.192;2023-04-15T01:34:36;13.98;;;6.60;;
74626;SDS011;63132;52.268;5.192;2023-04-15T01:37:02;12.60;;;6.90;;
74626;SDS011;63132;52.268;5.192;2023-04-15T01:39:27;14.97;;;6.50;;
74626;SDS011;63132;52.268;5.192;2023-04-15T01:41:53;9.20;;;6.47;;
74626;SDS011;63132;52.268;5.192;2023-04-15T01:44:18;12.97;;;6.83;;
74626;SDS011;63132;52.268;5.192;2023-04-15T01:46:43;10.55;;;6.57;;
74626;SDS011;63132;52.268;5.192;2023-04-15T01:49:09;11.55;;;6.53;;
74626;SDS011;63132;52.268;5.192;2023-04-15T01:51:34;12.67;;;6.67;;
74626;SDS011;63132;52.268;5.192;2023-04-15T01:54:00;10.73;;;6.37;;
74626;SDS011;63132;52.268;5.192;2023-04-15T01:56:25;15.40;;;6.22;;
74626;SDS011;63132;52.268;5.192;2023-04-15T01:58:51;12.25;;;5.97;;
74626;SDS011;63132;52.268;5.192;2023-04-15T02:01:16;12.68;;;6.65;;
74626;SDS011;63132;52.268;5.192;2023-04-15T02:03:43;12.85;;;6.80;;
74626;SDS011;63132;52.268;5.192;2023-04-15T02:06:09;14.15;;;6.70;;
74626;SDS011;63132;52.268;5.192;2023-04-15T02:08:35;14.35;;;6.63;;
74626;SDS011;63132;52.268;5.192;2023-04-15T02:11:00;19.10;;;6.90;;
74626;SDS011;63132;52.268;5.192;2023-04-15T02:13:26;14.68;;;7.05;;
74626;SDS011;63132;52.268;5.192;2023-04-15T02:15:51;14.47;;;7.63;;
74626;SDS011;63132;52.268;5.192;2023-04-15T02:18:17;14.60;;;6.68;;
74626;SDS011;63132;52.268;5.192;2023-04-15T02:20:42;12.95;;;6.82;;
74626;SDS011;63132;52.268;5.192;2023-04-15T02:23:08;19.20;;;7.63;;
74626;SDS011;63132;52.268;5.192;2023-04-15T02:25:33;13.82;;;6.85;;
74626;SDS011;63132;52.268;5.192;2023-04-15T02:27:59;12.18;;;6.57;;
74626;SDS011;63132;52.268;5.192;2023-04-15T02:30:24;14.60;;;7.37;;
74626;SDS011;63132;52.268;5.192;2023-04-15T02:32:51;14.75;;;7.32;;
74626;SDS011;63132;52.268;5.192;2023-04-15T02:35:16;13.67;;;7.03;;
74626;SDS011;63132;52.268;5.192;2023-04-15T02:37:43;12.18;;;7.22;;
74626;SDS011;63132;52.268;5.192;2023-04-15T02:40:10;15.57;;;7.32;;
74626;SDS011;63132;52.268;5.192;2023-04-15T02:42:36;13.20;;;7.07;;
74626;SDS011;63132;52.268;5.192;2023-04-15T02:45:02;17.23;;;7.50;;
74626;SDS011;63132;52.268;5.192;2023-04-15T02:47:28;11.52;;;7.38;;
74626;SDS011;63132;52.268;5.192;2023-04-15T02:49:54;14.63;;;6.35;;
74626;SDS011;63132;52.268;5.192;2023-04-15T02:52:19;14.60;;;7.33;;
74626;SDS011;63132;52.268;5.192;2023-04-15T02:54:45;15.38;;;7.60;;
74626;SDS011;63132;52.268;5.192;2023-04-15T02:57:10;13.60;;;6.60;;
74626;SDS011;63132;52.268;5.192;2023-04-15T02:59:36;12.25;;;6.30;;
74626;SDS011;63132;52.268;5.192;2023-04-15T03:02:03;14.13;;;6.70;;
74626;SDS011;63132;52.268;5.192;2023-04-15T03:04:31;13.90;;;7.13;;
74626;SDS011;63132;52.268;5.192;2023-04-15T03:06:56;10.38;;;6.72;;
74626;SDS011;63132;52.268;5.192;2023-04-15T03:09:22;16.23;;;6.68;;
74626;SDS011;63132;52.268;5.192;2023-04-15T03:11:47;13.67;;;6.80;;
74626;SDS011;63132;52.268;5.192;2023-04-15T03:14:12;15.97;;;7.97;;
74626;SDS011;63132;52.268;5.192;2023-04-15T03:16:38;11.63;;;7.10;;
74626;SDS011;63132;52.268;5.192;2023-04-15T03:19:03;13.70;;;7.07;;
74626;SDS011;63132;52.268;5.192;2023-04-15T03:21:28;12.00;;;7.20;;
74626;SDS011;63132;52.268;5.192;2023-04-15T03:23:55;18.02;;;7.40;;
74626;SDS011;63132;52.268;5.192;2023-04-15T03:26:28;18.58;;;7.35;;
74626;SDS011;63132;52.268;5.192;2023-04-15T03:28:54;14.32;;;7.97;;
74626;SDS011;63132;52.268;5.192;2023-04-15T03:31:20;12.02;;;7.47;;
74626;SDS011;63132;52.268;5.192;2023-04-15T03:33:45;14.38;;;8.25;;
74626;SDS011;63132;52.268;5.192;2023-04-15T03:36:11;13.60;;;7.45;;
74626;SDS011;63132;52.268;5.192;2023-04-15T03:38:36;16.30;;;7.60;;
74626;SDS011;63132;52.268;5.192;2023-04-15T03:41:02;12.27;;;7.50;;
74626;SDS011;63132;52.268;5.192;2023-04-15T03:43:27;13.53;;;7.33;;
74626;SDS011;63132;52.268;5.192;2023-04-15T03:45:52;13.32;;;7.55;;
74626;SDS011;63132;52.268;5.192;2023-04-15T03:48:18;15.73;;;8.50;;
74626;SDS011;63132;52.268;5.192;2023-04-15T03:50:43;15.13;;;8.37;;
74626;SDS011;63132;52.268;5.192;2023-04-15T03:53:09;17.35;;;8.68;;
74626;SDS011;63132;52.268;5.192;2023-04-15T03:55:34;13.25;;;8.60;;
74626;SDS011;63132;52.268;5.192;2023-04-15T03:58:00;18.23;;;8.73;;
74626;SDS011;63132;52.268;5.192;2023-04-15T04:00:25;19.15;;;8.88;;
74626;SDS011;63132;52.268;5.192;2023-04-15T04:02:51;15.25;;;8.60;;
74626;SDS011;63132;52.268;5.192;2023-04-15T04:05:16;14.70;;;8.70;;
74626;SDS011;63132;52.268;5.192;2023-04-15T04:07:41;18.40;;;9.30;;
74626;SDS011;63132;52.268;5.192;2023-04-15T04:10:07;14.98;;;9.50;;
74626;SDS011;63132;52.268;5.192;2023-04-15T04:12:33;19.85;;;9.40;;
74626;SDS011;63132;52.268;5.192;2023-04-15T04:14:58;18.10;;;9.17;;
74626;SDS011;63132;52.268;5.192;2023-04-15T04:17:23;23.45;;;10.52;;
74626;SDS011;63132;52.268;5.192;2023-04-15T04:19:49;20.73;;;9.87;;
74626;SDS011;63132;52.268;5.192;2023-04-15T04:22:14;25.58;;;10.85;;
74626;SDS011;63132;52.268;5.192;2023-04-15T04:24:40;19.35;;;10.95;;
74626;SDS011;63132;52.268;5.192;2023-04-15T04:27:05;17.30;;;9.07;;
74626;SDS011;63132;52.268;5.192;2023-04-15T04:29:31;15.97;;;9.47;;
74626;SDS011;63132;52.268;5.192;2023-04-15T04:31:56;16.52;;;10.32;;
74626;SDS011;63132;52.268;5.192;2023-04-15T04:34:22;17.15;;;9.25;;
74626;SDS011;63132;52.268;5.192;2023-04-15T04:36:47;16.00;;;9.80;;
74626;SDS011;63132;52.268;5.192;2023-04-15T04:39:12;17.40;;;10.10;;
74626;SDS011;63132;52.268;5.192;2023-04-15T04:41:38;18.90;;;10.13;;
74626;SDS011;63132;52.268;5.192;2023-04-15T04:44:03;19.65;;;9.52;;
74626;SDS011;63132;52.268;5.192;2023-04-15T04:46:29;20.17;;;10.30;;
74626;SDS011;63132;52.268;5.192;2023-04-15T04:48:54;18.97;;;9.43;;
74626;SDS011;63132;52.268;5.192;2023-04-15T04:51:19;16.95;;;10.23;;
74626;SDS011;63132;52.268;5.192;2023-04-15T04:53:45;19.07;;;9.77;;
74626;SDS011;63132;52.268;5.192;2023-04-15T04:56:10;16.97;;;10.33;;
74626;SDS011;63132;52.268;5.192;2023-04-15T04:58:36;20.77;;;9.93;;
74626;SDS011;63132;52.268;5.192;2023-04-15T05:01:02;19.40;;;9.32;;
74626;SDS011;63132;52.268;5.192;2023-04-15T05:03:27;18.70;;;11.43;;
74626;SDS011;63132;52.268;5.192;2023-04-15T05:05:53;21.77;;;10.32;;
74626;SDS011;63132;52.268;5.192;2023-04-15T05:08:18;19.25;;;9.88;;
74626;SDS011;63132;52.268;5.192;2023-04-15T05:10:44;18.00;;;9.88;;
74626;SDS011;63132;52.268;5.192;2023-04-15T05:13:10;20.13;;;11.00;;
74626;SDS011;63132;52.268;5.192;2023-04-15T05:15:36;20.52;;;10.80;;
74626;SDS011;63132;52.268;5.192;2023-04-15T05:18:03;16.95;;;10.10;;
74626;SDS011;63132;52.268;5.192;2023-04-15T05:20:29;16.48;;;10.30;;
74626;SDS011;63132;52.268;5.192;2023-04-15T05:22:54;21.83;;;11.10;;
74626;SDS011;63132;52.268;5.192;2023-04-15T05:25:20;21.70;;;10.80;;
74626;SDS011;63132;52.268;5.192;2023-04-15T05:27:46;18.92;;;10.43;;
74626;SDS011;63132;52.268;5.192;2023-04-15T05:30:11;17.95;;;11.35;;
74626;SDS011;63132;52.268;5.192;2023-04-15T05:32:37;20.10;;;11.70;;
74626;SDS011;63132;52.268;5.192;2023-04-15T05:35:02;20.17;;;11.30;;
74626;SDS011;63132;52.268;5.192;2023-04-15T05:37:28;21.38;;;10.80;;
74626;SDS011;63132;52.268;5.192;2023-04-15T05:39:53;19.70;;;10.88;;
74626;SDS011;63132;52.268;5.192;2023-04-15T05:42:18;19.70;;;11.47;;
74626;SDS011;63132;52.268;5.192;2023-04-15T05:44:44;23.35;;;12.07;;
74626;SDS011;63132;52.268;5.192;2023-04-15T05:47:09;20.60;;;12.02;;
74626;SDS011;63132;52.268;5.192;2023-04-15T05:49:35;24.67;;;12.38;;
74626;SDS011;63132;52.268;5.192;2023-04-15T05:52:01;20.98;;;12.25;;
74626;SDS011;63132;52.268;5.192;2023-04-15T05:54:26;22.15;;;12.68;;
74626;SDS011;63132;52.268;5.192;2023-04-15T05:56:52;18.93;;;12.23;;
74626;SDS011;63132;52.268;5.192;2023-04-15T05:59:17;21.08;;;12.23;;
74626;SDS011;63132;52.268;5.192;2023-04-15T06:01:43;25.87;;;12.87;;
74626;SDS011;63132;52.268;5.192;2023-04-15T06:04:09;26.77;;;13.73;;
74626;SDS011;63132;52.268;5.192;2023-04-15T06:09:01;21.00;;;12.55;;
74626;SDS011;63132;52.268;5.192;2023-04-15T06:11:26;20.55;;;13.18;;
74626;SDS011;63132;52.268;5.192;2023-04-15T06:13:52;22.88;;;13.65;;
74626;SDS011;63132;52.268;5.192;2023-04-15T06:16:17;22.73;;;13.63;;
74626;SDS011;63132;52.268;5.192;2023-04-15T06:18:43;23.38;;;14.18;;
74626;SDS011;63132;52.268;5.192;2023-04-15T06:21:08;24.98;;;13.65;;
74626;SDS011;63132;52.268;5.192;2023-04-15T06:23:34;25.15;;;14.50;;
74626;SDS011;63132;52.268;5.192;2023-04-15T06:26:05;23.75;;;13.85;;
74626;SDS011;63132;52.268;5.192;2023-04-15T06:28:30;28.27;;;14.30;;
74626;SDS011;63132;52.268;5.192;2023-04-15T06:30:56;21.80;;;13.65;;
74626;SDS011;63132;52.268;5.192;2023-04-15T06:33:21;25.43;;;14.70;;
74626;SDS011;63132;52.268;5.192;2023-04-15T06:35:47;22.67;;;14.30;;
74626;SDS011;63132;52.268;5.192;2023-04-15T06:38:13;21.83;;;14.10;;
74626;SDS011;63132;52.268;5.192;2023-04-15T06:40:39;25.40;;;14.18;;
74626;SDS011;63132;52.268;5.192;2023-04-15T06:43:04;25.98;;;14.13;;
74626;SDS011;63132;52.268;5.192;2023-04-15T06:45:32;26.35;;;13.85;;
74626;SDS011;63132;52.268;5.192;2023-04-15T06:47:58;26.73;;;12.45;;
74626;SDS011;63132;52.268;5.192;2023-04-15T06:50:23;20.40;;;13.57;;
74626;SDS011;63132;52.268;5.192;2023-04-15T06:52:48;21.48;;;13.45;;
74626;SDS011;63132;52.268;5.192;2023-04-15T06:55:14;23.20;;;13.88;;
74626;SDS011;63132;52.268;5.192;2023-04-15T06:57:40;21.85;;;12.80;;
74626;SDS011;63132;52.268;5.192;2023-04-15T07:00:05;23.40;;;13.23;;
74626;SDS011;63132;52.268;5.192;2023-04-15T07:02:32;25.13;;;12.93;;
74626;SDS011;63132;52.268;5.192;2023-04-15T07:04:57;21.08;;;12.65;;
74626;SDS011;63132;52.268;5.192;2023-04-15T07:07:33;19.40;;;12.52;;
74626;SDS011;63132;52.268;5.192;2023-04-15T07:10:00;20.95;;;12.25;;
74626;SDS011;63132;52.268;5.192;2023-04-15T07:12:26;18.48;;;10.98;;
74626;SDS011;63132;52.268;5.192;2023-04-15T07:14:51;17.30;;;10.30;;
74626;SDS011;63132;52.268;5.192;2023-04-15T07:17:17;16.48;;;11.13;;
74626;SDS011;63132;52.268;5.192;2023-04-15T07:19:42;17.52;;;9.80;;
74626;SDS011;63132;52.268;5.192;2023-04-15T07:22:10;14.75;;;9.38;;
74626;SDS011;63132;52.268;5.192;2023-04-15T07:24:49;16.08;;;9.88;;
74626;SDS011;63132;52.268;5.192;2023-04-15T07:27:14;14.65;;;8.75;;
74626;SDS011;63132;52.268;5.192;2023-04-15T07:29:49;13.98;;;8.60;;
74626;SDS011;63132;52.268;5.192;2023-04-15T07:34:41;15.15;;;8.15;;
74626;SDS011;63132;52.268;5.192;2023-04-15T07:37:07;13.25;;;8.27;;
74626;SDS011;63132;52.268;5.192;2023-04-15T07:39:32;14.80;;;8.05;;
74626;SDS011;63132;52.268;5.192;2023-04-15T07:41:58;11.85;;;7.45;;
74626;SDS011;63132;52.268;5.192;2023-04-15T07:44:24;19.13;;;6.43;;
74626;SDS011;63132;52.268;5.192;2023-04-15T07:46:50;12.75;;;7.57;;
74626;SDS011;63132;52.268;5.192;2023-04-15T07:49:16;13.75;;;6.78;;
74626;SDS011;63132;52.268;5.192;2023-04-15T07:51:43;16.30;;;8.30;;
74626;SDS011;63132;52.268;5.192;2023-04-15T07:54:08;15.50;;;6.43;;
74626;SDS011;63132;52.268;5.192;2023-04-15T07:56:34;10.93;;;5.70;;
74626;SDS011;63132;52.268;5.192;2023-04-15T08:01:28;16.40;;;6.93;;
74626;SDS011;63132;52.268;5.192;2023-04-15T08:06:20;15.27;;;7.10;;
74626;SDS011;63132;52.268;5.192;2023-04-15T08:08:45;10.43;;;5.93;;
74626;SDS011;63132;52.268;5.192;2023-04-15T08:11:11;10.23;;;6.28;;
74626;SDS011;63132;52.268;5.192;2023-04-15T08:13:37;10.23;;;6.38;;
74626;SDS011;63132;52.268;5.192;2023-04-15T08:18:47;11.15;;;6.88;;
74626;SDS011;63132;52.268;5.192;2023-04-15T08:21:13;11.15;;;6.85;;
74626;SDS011;63132;52.268;5.192;2023-04-15T08:23:40;11.60;;;6.70;;
74626;SDS011;63132;52.268;5.192;2023-04-15T08:26:05;10.88;;;6.00;;
74626;SDS011;63132;52.268;5.192;2023-04-15T08:28:31;9.77;;;5.65;;
74626;SDS011;63132;52.268;5.192;2023-04-15T08:30:57;10.85;;;5.80;;
74626;SDS011;63132;52.268;5.192;2023-04-15T08:33:22;9.85;;;5.25;;
74626;SDS011;63132;52.268;5.192;2023-04-15T08:35:48;8.90;;;5.50;;
74626;SDS011;63132;52.268;5.192;2023-04-15T08:38:13;8.30;;;4.80;;
74626;SDS011;63132;52.268;5.192;2023-04-15T08:40:45;10.20;;;6.28;;
74626;SDS011;63132;52.268;5.192;2023-04-15T08:43:23;11.20;;;5.85;;
74626;SDS011;63132;52.268;5.192;2023-04-15T08:45:53;9.80;;;5.30;;
74626;SDS011;63132;52.268;5.192;2023-04-15T08:48:19;12.05;;;5.93;;
74626;SDS011;63132;52.268;5.192;2023-04-15T08:50:46;12.60;;;6.43;;
74626;SDS011;63132;52.268;5.192;2023-04-15T08:53:13;12.48;;;6.43;;
74626;SDS011;63132;52.268;5.192;2023-04-15T08:55:43;14.57;;;6.32;;
74626;SDS011;63132;52.268;5.192;2023-04-15T08:58:10;14.52;;;5.50;;
74626;SDS011;63132;52.268;5.192;2023-04-15T09:00:37;10.77;;;6.40;;
74626;SDS011;63132;52.268;5.192;2023-04-15T09:03:03;15.93;;;6.57;;
74626;SDS011;63132;52.268;5.192;2023-04-15T09:05:37;11.75;;;5.53;;
74626;SDS011;63132;52.268;5.192;2023-04-15T09:08:02;10.18;;;5.22;;
74626;SDS011;63132;52.268;5.192;2023-04-15T09:10:29;10.02;;;4.50;;
74626;SDS011;63132;52.268;5.192;2023-04-15T09:12:55;12.23;;;4.47;;
74626;SDS011;63132;52.268;5.192;2023-04-15T09:15:23;10.50;;;4.55;;
74626;SDS011;63132;52.268;5.192;2023-04-15T09:17:49;7.97;;;4.32;;
74626;SDS011;63132;52.268;5.192;2023-04-15T09:20:15;9.63;;;4.07;;
74626;SDS011;63132;52.268;5.192;2023-04-15T09:22:43;6.00;;;3.55;;
74626;SDS011;63132;52.268;5.192;2023-04-15T09:27:51;5.75;;;2.95;;
74626;SDS011;63132;52.268;5.192;2023-04-15T09:30:17;6.07;;;2.80;;
74626;SDS011;63132;52.268;5.192;2023-04-15T09:32:56;4.45;;;2.75;;
74626;SDS011;63132;52.268;5.192;2023-04-15T09:35:24;6.70;;;2.88;;
74626;SDS011;63132;52.268;5.192;2023-04-15T09:37:52;8.50;;;3.20;;
74626;SDS011;63132;52.268;5.192;2023-04-15T09:40:29;6.15;;;3.67;;
74626;SDS011;63132;52.268;5.192;2023-04-15T09:43:03;5.75;;;3.30;;
74626;SDS011;63132;52.268;5.192;2023-04-15T09:45:30;6.10;;;3.50;;
74626;SDS011;63132;52.268;5.192;2023-04-15T09:47:57;5.97;;;3.53;;
74626;SDS011;63132;52.268;5.192;2023-04-15T09:50:27;8.75;;;3.70;;
74626;SDS011;63132;52.268;5.192;2023-04-15T09:52:53;6.68;;;3.78;;
74626;SDS011;63132;52.268;5.192;2023-04-15T09:55:23;5.63;;;3.75;;
74626;SDS011;63132;52.268;5.192;2023-04-15T09:57:49;6.55;;;4.15;;
74626;SDS011;63132;52.268;5.192;2023-04-15T10:00:14;7.07;;;4.20;;
74626;SDS011;63132;52.268;5.192;2023-04-15T10:02:40;7.55;;;3.92;;
74626;SDS011;63132;52.268;5.192;2023-04-15T10:05:13;11.43;;;5.22;;
74626;SDS011;63132;52.268;5.192;2023-04-15T10:07:39;8.07;;;4.88;;
74626;SDS011;63132;52.268;5.192;2023-04-15T10:10:06;10.10;;;5.22;;
74626;SDS011;63132;52.268;5.192;2023-04-15T10:12:33;7.72;;;4.85;;
74626;SDS011;63132;52.268;5.192;2023-04-15T10:15:04;12.60;;;5.40;;
74626;SDS011;63132;52.268;5.192;2023-04-15T10:17:31;8.40;;;5.20;;
74626;SDS011;63132;52.268;5.192;2023-04-15T10:20:02;8.93;;;4.78;;
74626;SDS011;63132;52.268;5.192;2023-04-15T10:22:29;7.93;;;5.25;;
74626;SDS011;63132;52.268;5.192;2023-04-15T10:24:55;10.60;;;5.50;;
74626;SDS011;63132;52.268;5.192;2023-04-15T10:27:21;9.55;;;5.63;;
74626;SDS011;63132;52.268;5.192;2023-04-15T10:29:48;9.05;;;5.70;;
74626;SDS011;63132;52.268;5.192;2023-04-15T10:32:14;9.60;;;5.35;;
74626;SDS011;63132;52.268;5.192;2023-04-15T10:34:43;9.52;;;5.47;;
74626;SDS011;63132;52.268;5.192;2023-04-15T10:37:10;8.48;;;4.75;;
74626;SDS011;63132;52.268;5.192;2023-04-15T10:39:37;8.65;;;5.22;;
74626;SDS011;63132;52.268;5.192;2023-04-15T10:42:06;8.98;;;4.57;;
74626;SDS011;63132;52.268;5.192;2023-04-15T10:44:34;9.13;;;4.25;;
74626;SDS011;63132;52.268;5.192;2023-04-15T10:47:03;9.57;;;4.78;;
74626;SDS011;63132;52.268;5.192;2023-04-15T10:49:31;9.32;;;5.47;;
74626;SDS011;63132;52.268;5.192;2023-04-15T10:51:57;9.88;;;5.50;;
74626;SDS011;63132;52.268;5.192;2023-04-15T10:59:30;11.13;;;5.20;;
74626;SDS011;63132;52.268;5.192;2023-04-15T11:01:59;9.70;;;6.03;;
74626;SDS011;63132;52.268;5.192;2023-04-15T11:07:35;8.40;;;4.45;;
74626;SDS011;63132;52.268;5.192;2023-04-15T11:10:02;9.23;;;5.57;;
74626;SDS011;63132;52.268;5.192;2023-04-15T11:12:35;7.43;;;4.28;;
74626;SDS011;63132;52.268;5.192;2023-04-15T11:17:51;6.28;;;3.10;;
74626;SDS011;63132;52.268;5.192;2023-04-15T11:20:17;5.45;;;2.75;;
74626;SDS011;63132;52.268;5.192;2023-04-15T11:22:46;6.20;;;2.10;;
74626;SDS011;63132;52.268;5.192;2023-04-15T11:25:23;6.10;;;2.40;;
74626;SDS011;63132;52.268;5.192;2023-04-15T11:27:53;6.00;;;2.55;;
74626;SDS011;63132;52.268;5.192;2023-04-15T11:30:22;5.22;;;2.90;;
74626;SDS011;63132;52.268;5.192;2023-04-15T11:32:49;5.68;;;3.10;;
74626;SDS011;63132;52.268;5.192;2023-04-15T11:35:16;5.10;;;2.75;;
74626;SDS011;63132;52.268;5.192;2023-04-15T11:37:46;5.25;;;2.95;;
74626;SDS011;63132;52.268;5.192;2023-04-15T11:40:13;5.47;;;3.13;;
74626;SDS011;63132;52.268;5.192;2023-04-15T11:45:05;8.20;;;3.20;;
74626;SDS011;63132;52.268;5.192;2023-04-15T11:47:33;4.13;;;2.42;;
74626;SDS011;63132;52.268;5.192;2023-04-15T11:50:12;7.05;;;3.05;;
74626;SDS011;63132;52.268;5.192;2023-04-15T11:52:38;5.65;;;3.15;;
74626;SDS011;63132;52.268;5.192;2023-04-15T11:55:03;7.80;;;3.17;;
74626;SDS011;63132;52.268;5.192;2023-04-15T11:57:31;8.32;;;3.33;;
74626;SDS011;63132;52.268;5.192;2023-04-15T11:59:56;6.20;;;3.03;;
74626;SDS011;63132;52.268;5.192;2023-04-15T12:02:29;7.03;;;3.10;;
74626;SDS011;63132;52.268;5.192;2023-04-15T12:05:02;8.18;;;3.13;;
74626;SDS011;63132;52.268;5.192;2023-04-15T12:07:29;5.75;;;2.83;;
74626;SDS011;63132;52.268;5.192;2023-04-15T12:09:54;8.32;;;3.55;;
74626;SDS011;63132;52.268;5.192;2023-04-15T12:12:21;7.65;;;3.30;;
74626;SDS011;63132;52.268;5.192;2023-04-15T12:14:51;10.07;;;2.85;;
74626;SDS011;63132;52.268;5.192;2023-04-15T12:17:16;6.07;;;2.80;;
74626;SDS011;63132;52.268;5.192;2023-04-15T12:22:12;7.70;;;2.53;;
74626;SDS011;63132;52.268;5.192;2023-04-15T12:24:40;5.45;;;3.05;;
74626;SDS011;63132;52.268;5.192;2023-04-15T12:27:11;4.80;;;2.80;;
74626;SDS011;63132;52.268;5.192;2023-04-15T12:29:38;7.68;;;2.83;;
74626;SDS011;63132;52.268;5.192;2023-04-15T12:32:06;7.25;;;2.75;;
74626;SDS011;63132;52.268;5.192;2023-04-15T12:34:40;5.40;;;2.72;;
74626;SDS011;63132;52.268;5.192;2023-04-15T12:37:13;6.85;;;3.00;;
74626;SDS011;63132;52.268;5.192;2023-04-15T12:39:40;7.88;;;3.20;;
74626;SDS011;63132;52.268;5.192;2023-04-15T12:42:07;11.05;;;4.65;;
74626;SDS011;63132;52.268;5.192;2023-04-15T12:44:34;6.85;;;2.85;;
74626;SDS011;63132;52.268;5.192;2023-04-15T12:47:00;6.60;;;3.15;;
74626;SDS011;63132;52.268;5.192;2023-04-15T12:49:26;6.60;;;2.83;;
74626;SDS011;63132;52.268;5.192;2023-04-15T12:51:53;5.80;;;2.40;;
74626;SDS011;63132;52.268;5.192;2023-04-15T12:54:20;6.05;;;2.33;;
74626;SDS011;63132;52.268;5.192;2023-04-15T12:56:46;6.90;;;2.30;;
74626;SDS011;63132;52.268;5.192;2023-04-15T12:59:13;5.25;;;2.35;;
74626;SDS011;63132;52.268;5.192;2023-04-15T13:04:04;4.28;;;1.98;;
74626;SDS011;63132;52.268;5.192;2023-04-15T13:08:58;7.82;;;2.00;;
74626;SDS011;63132;52.268;5.192;2023-04-15T13:11:25;8.05;;;2.40;;
74626;SDS011;63132;52.268;5.192;2023-04-15T13:13:51;8.98;;;2.67;;
74626;SDS011;63132;52.268;5.192;2023-04-15T13:16:17;4.65;;;2.05;;
74626;SDS011;63132;52.268;5.192;2023-04-15T13:18:43;3.67;;;1.50;;
74626;SDS011;63132;52.268;5.192;2023-04-15T13:21:10;4.72;;;1.83;;
74626;SDS011;63132;52.268;5.192;2023-04-15T13:23:36;3.75;;;1.30;;
74626;SDS011;63132;52.268;5.192;2023-04-15T13:26:01;3.80;;;1.60;;
74626;SDS011;63132;52.268;5.192;2023-04-15T13:28:27;5.82;;;1.67;;
74626;SDS011;63132;52.268;5.192;2023-04-15T13:30:52;3.42;;;1.48;;
74626;SDS011;63132;52.268;5.192;2023-04-15T13:33:18;5.72;;;1.63;;
74626;SDS011;63132;52.268;5.192;2023-04-15T13:38:08;5.25;;;1.38;;
74626;SDS011;63132;52.268;5.192;2023-04-15T13:42:59;6.10;;;1.60;;
74626;SDS011;63132;52.268;5.192;2023-04-15T13:45:26;5.60;;;1.40;;
74626;SDS011;63132;52.268;5.192;2023-04-15T13:47:51;4.57;;;2.13;;
74626;SDS011;63132;52.268;5.192;2023-04-15T13:50:17;8.32;;;1.70;;
74626;SDS011;63132;52.268;5.192;2023-04-15T13:55:08;4.75;;;1.38;;
74626;SDS011;63132;52.268;5.192;2023-04-15T13:57:34;5.60;;;1.65;;
74626;SDS011;63132;52.268;5.192;2023-04-15T13:59:59;7.82;;;1.83;;
74626;SDS011;63132;52.268;5.192;2023-04-15T14:02:25;8.43;;;1.60;;
74626;SDS011;63132;52.268;5.192;2023-04-15T14:04:50;2.75;;;1.33;;
74626;SDS011;63132;52.268;5.192;2023-04-15T14:07:15;4.85;;;1.70;;
74626;SDS011;63132;52.268;5.192;2023-04-15T14:09:42;5.15;;;1.73;;
74626;SDS011;63132;52.268;5.192;2023-04-15T14:12:08;6.57;;;1.70;;
74626;SDS011;63132;52.268;5.192;2023-04-15T14:14:34;4.85;;;1.50;;
74626;SDS011;63132;52.268;5.192;2023-04-15T14:16:59;8.00;;;1.73;;
74626;SDS011;63132;52.268;5.192;2023-04-15T14:19:24;2.28;;;1.38;;
74626;SDS011;63132;52.268;5.192;2023-04-15T14:21:50;3.42;;;1.10;;
74626;SDS011;63132;52.268;5.192;2023-04-15T14:24:15;4.30;;;1.38;;
74626;SDS011;63132;52.268;5.192;2023-04-15T14:26:41;4.45;;;1.60;;
74626;SDS011;63132;52.268;5.192;2023-04-15T14:29:08;7.55;;;1.40;;
74626;SDS011;63132;52.268;5.192;2023-04-15T14:31:34;3.53;;;1.65;;
74626;SDS011;63132;52.268;5.192;2023-04-15T14:33:59;6.90;;;1.67;;
74626;SDS011;63132;52.268;5.192;2023-04-15T14:36:25;8.50;;;1.80;;
74626;SDS011;63132;52.268;5.192;2023-04-15T14:38:51;4.88;;;1.63;;
74626;SDS011;63132;52.268;5.192;2023-04-15T14:41:16;5.43;;;1.50;;
74626;SDS011;63132;52.268;5.192;2023-04-15T14:43:41;5.00;;;1.92;;
74626;SDS011;63132;52.268;5.192;2023-04-15T14:46:07;9.30;;;2.25;;
74626;SDS011;63132;52.268;5.192;2023-04-15T14:48:33;7.65;;;1.50;;
74626;SDS011;63132;52.268;5.192;2023-04-15T14:50:58;12.60;;;3.30;;
74626;SDS011;63132;52.268;5.192;2023-04-15T14:53:24;8.38;;;1.50;;
74626;SDS011;63132;52.268;5.192;2023-04-15T14:55:49;9.93;;;1.92;;
74626;SDS011;63132;52.268;5.192;2023-04-15T14:58:15;9.35;;;1.75;;
74626;SDS011;63132;52.268;5.192;2023-04-15T15:00:40;11.05;;;2.22;;
74626;SDS011;63132;52.268;5.192;2023-04-15T15:03:08;7.30;;;1.67;;
74626;SDS011;63132;52.268;5.192;2023-04-15T15:05:40;4.03;;;1.33;;
74626;SDS011;63132;52.268;5.192;2023-04-15T15:08:07;8.55;;;1.88;;
74626;SDS011;63132;52.268;5.192;2023-04-15T15:10:33;7.95;;;1.70;;
74626;SDS011;63132;52.268;5.192;2023-04-15T15:13:00;4.40;;;1.75;;
74626;SDS011;63132;52.268;5.192;2023-04-15T15:15:26;9.73;;;1.65;;
74626;SDS011;63132;52.268;5.192;2023-04-15T15:17:52;8.80;;;2.42;;
74626;SDS011;63132;52.268;5.192;2023-04-15T15:20:17;6.78;;;1.38;;
74626;SDS011;63132;52.268;5.192;2023-04-15T15:22:43;6.72;;;1.95;;